createdAt,value
2022-09-13T00:01:16.118Z,73.66
2022-09-13T00:04:17.720Z,73.72
2022-09-13T00:07:19.234Z,73.65
2022-09-13T00:10:21.388Z,73.49
2022-09-13T00:13:22.876Z,73.43
2022-09-13T00:16:27.170Z,73.36
2022-09-13T00:19:28.716Z,73.41
2022-09-13T00:22:30.452Z,73.43
2022-09-13T00:25:32.013Z,73.55
2022-09-13T00:28:34.070Z,73.71
2022-09-13T00:31:35.576Z,73.68
2022-09-13T00:34:37.463Z,73.66
2022-09-13T00:37:39.193Z,73.67
2022-09-13T00:40:40.742Z,73.80
2022-09-13T00:43:50.031Z,73.87
2022-09-13T00:46:52.098Z,73.76
2022-09-13T00:50:16.713Z,73.70
2022-09-13T00:53:27.112Z,73.63
2022-09-13T00:56:38.913Z,73.60
2022-09-13T00:59:44.619Z,73.61
2022-09-13T01:02:52.087Z,73.59
2022-09-13T01:06:02.866Z,73.56
2022-09-13T01:09:05.722Z,73.54
2022-09-13T01:12:18.212Z,73.61
2022-09-13T01:15:20.152Z,73.69
2022-09-13T01:18:21.747Z,73.76
2022-09-13T01:21:38.492Z,73.88
2022-09-13T01:24:55.865Z,73.82
2022-09-13T01:28:09.209Z,73.77
2022-09-13T01:31:44.407Z,73.82
2022-09-13T01:35:04.276Z,73.91
2022-09-13T01:38:17.919Z,73.93
2022-09-13T01:41:38.491Z,73.83
2022-09-13T01:45:04.398Z,73.72
2022-09-13T01:48:21.867Z,73.77
2022-09-13T01:51:26.272Z,73.84
2022-09-13T01:55:03.397Z,73.79
2022-09-13T01:58:08.664Z,73.81
2022-09-13T02:01:17.938Z,73.91
2022-09-13T02:04:23.654Z,73.85
2022-09-13T02:07:33.457Z,73.98
2022-09-13T02:10:40.960Z,74.01
2022-09-13T02:14:06.697Z,74.02
2022-09-13T02:17:14.689Z,74.08
2022-09-13T02:20:23.238Z,74.00
2022-09-13T02:23:39.973Z,74.00
2022-09-13T02:26:45.981Z,74.07
2022-09-13T02:29:50.834Z,74.18
2022-09-13T02:33:00.134Z,74.24
2022-09-13T02:36:09.541Z,74.26
2022-09-13T02:39:15.977Z,74.35
2022-09-13T02:42:21.381Z,74.41
2022-09-13T02:45:31.220Z,74.44
2022-09-13T02:48:47.727Z,74.25
2022-09-13T02:51:58.791Z,74.13
2022-09-13T02:55:03.360Z,74.28
2022-09-13T02:58:28.162Z,74.36
2022-09-13T03:01:30.416Z,74.39
2022-09-13T03:04:32.723Z,74.38
2022-09-13T03:07:34.170Z,74.33
2022-09-13T03:11:09.179Z,74.26
2022-09-13T03:14:31.916Z,74.24
2022-09-13T03:17:58.073Z,74.21
2022-09-13T03:21:33.633Z,74.19
2022-09-13T03:25:04.170Z,74.04
2022-09-13T03:28:27.223Z,74.05
2022-09-13T03:32:00.794Z,74.02
2022-09-13T03:35:05.472Z,73.90
2022-09-13T03:38:16.540Z,73.96
2022-09-13T03:41:34.506Z,74.15
2022-09-13T03:44:39.776Z,74.30
2022-09-13T03:47:44.245Z,74.37
2022-09-13T03:50:47.352Z,74.55
2022-09-13T03:54:00.847Z,74.67
2022-09-13T03:57:09.343Z,74.78
2022-09-13T04:00:13.480Z,74.92
2022-09-13T04:03:15.041Z,75.09
2022-09-13T04:06:16.781Z,75.19
2022-09-13T04:09:18.223Z,75.31
2022-09-13T04:12:19.683Z,75.47
2022-09-13T04:15:21.283Z,75.51
2022-09-13T04:18:23.956Z,75.59
2022-09-13T04:21:25.419Z,75.73
2022-09-13T04:24:28.357Z,75.88
2022-09-13T04:27:29.873Z,76.13
2022-09-13T04:30:31.401Z,76.28
2022-09-13T04:33:32.881Z,76.38
2022-09-13T04:36:34.364Z,76.47
2022-09-13T04:39:36.130Z,76.58
2022-09-13T04:42:37.570Z,76.63
2022-09-13T04:45:39.252Z,76.66
2022-09-13T04:48:40.824Z,76.69
2022-09-13T04:51:42.708Z,76.76
2022-09-13T04:54:44.203Z,76.69
2022-09-13T04:57:45.695Z,76.68
2022-09-13T05:00:47.389Z,76.55
2022-09-13T05:03:50.789Z,76.57
2022-09-13T05:06:52.398Z,76.57
2022-09-13T05:09:53.880Z,76.57
2022-09-13T05:12:55.388Z,76.53
2022-09-13T05:15:58.081Z,76.55
2022-09-13T05:19:00.473Z,76.58
2022-09-13T05:22:02.390Z,76.59
2022-09-13T05:25:04.321Z,76.72
2022-09-13T05:28:06.049Z,76.82
2022-09-13T05:31:13.705Z,76.86
2022-09-13T05:34:19.949Z,77.02
2022-09-13T05:37:21.659Z,77.17
2022-09-13T05:40:23.220Z,77.23
2022-09-13T05:43:27.095Z,77.21
2022-09-13T05:46:28.781Z,77.15
2022-09-13T05:49:30.453Z,77.12
2022-09-13T05:52:31.912Z,77.05
2022-09-13T05:55:33.613Z,77.08
2022-09-13T05:58:39.192Z,77.19
2022-09-13T06:01:40.806Z,77.05
2022-09-13T06:04:43.021Z,76.95
2022-09-13T06:07:44.644Z,76.88
2022-09-13T06:10:59.663Z,76.85
2022-09-13T06:14:01.272Z,76.63
2022-09-13T06:17:02.861Z,76.59
2022-09-13T06:20:04.956Z,76.65
2022-09-13T06:23:06.484Z,76.79
2022-09-13T06:26:10.659Z,76.65
2022-09-13T06:29:14.160Z,76.51
2022-09-13T06:32:15.890Z,76.74
2022-09-13T06:35:17.736Z,77.01
2022-09-13T06:38:19.864Z,76.89
2022-09-13T06:41:24.542Z,76.94
2022-09-13T06:44:26.121Z,77.10
2022-09-13T06:47:27.908Z,77.26
2022-09-13T06:50:29.472Z,77.43
2022-09-13T06:53:31.504Z,77.78
2022-09-13T06:56:35.366Z,77.80
2022-09-13T06:59:37.301Z,77.93
2022-09-13T07:02:39.267Z,78.16
2022-09-13T07:05:40.799Z,78.27
2022-09-13T07:08:43.635Z,78.27
2022-09-13T07:11:46.794Z,78.44
2022-09-13T07:14:48.687Z,78.55
2022-09-13T07:18:02.673Z,78.34
2022-09-13T07:21:10.178Z,78.92
2022-09-13T07:24:12.023Z,78.52
2022-09-13T07:27:16.143Z,78.44
2022-09-13T07:30:17.835Z,78.60
2022-09-13T07:33:20.324Z,78.63
2022-09-13T07:36:22.809Z,78.60
2022-09-13T07:39:24.454Z,78.58
2022-09-13T07:42:26.988Z,78.24
2022-09-13T07:45:28.657Z,78.38
2022-09-13T07:48:33.735Z,78.18
2022-09-13T07:51:37.942Z,77.75
2022-09-13T07:54:39.498Z,77.59
2022-09-13T07:57:41.268Z,77.69
2022-09-13T08:00:43.032Z,77.94
2022-09-13T08:03:49.687Z,77.90
2022-09-13T08:06:51.640Z,77.25
2022-09-13T08:09:55.729Z,76.52
2022-09-13T08:12:57.272Z,75.92
2022-09-13T08:16:04.059Z,75.98
2022-09-13T08:19:09.954Z,75.62
2022-09-13T08:22:11.575Z,75.47
2022-09-13T08:25:13.330Z,75.26
2022-09-13T08:28:17.080Z,75.41
2022-09-13T08:31:19.996Z,75.82
2022-09-13T08:34:21.734Z,76.20
2022-09-13T08:37:23.558Z,75.94
2022-09-13T08:40:30.091Z,75.62
2022-09-13T08:44:00.163Z,75.89
2022-09-13T08:47:10.890Z,75.48
2022-09-13T08:50:19.030Z,76.20
2022-09-13T08:53:28.730Z,75.81
2022-09-13T08:56:58.906Z,75.31
2022-09-13T09:00:03.114Z,75.05
2022-09-13T09:03:25.119Z,74.25
2022-09-13T09:06:28.238Z,74.61
2022-09-13T09:09:35.062Z,74.56
2022-09-13T09:12:42.424Z,74.06
2022-09-13T09:15:51.212Z,73.85
2022-09-13T09:18:59.508Z,73.06
2022-09-13T09:22:05.085Z,72.58
2022-09-13T09:25:10.741Z,72.28
2022-09-13T09:28:14.702Z,72.62
2022-09-13T09:31:24.761Z,72.61
2022-09-13T09:34:52.107Z,72.46
2022-09-13T09:38:23.188Z,72.18
2022-09-13T09:41:34.529Z,72.07
2022-09-13T09:44:43.091Z,70.83
2022-09-13T09:47:47.238Z,71.29
2022-09-13T09:50:52.458Z,71.46
2022-09-13T09:54:04.609Z,70.96
2022-09-13T09:57:09.359Z,70.49
2022-09-13T10:00:12.197Z,69.35
2022-09-13T10:03:20.218Z,69.03
2022-09-13T10:06:25.045Z,69.18
2022-09-13T10:09:27.020Z,68.82
2022-09-13T10:12:33.274Z,68.50
2022-09-13T10:15:35.222Z,68.90
2022-09-13T10:18:45.345Z,69.24
2022-09-13T10:22:03.567Z,68.94
2022-09-13T10:25:13.275Z,67.97
2022-09-13T10:28:18.656Z,68.38
2022-09-13T10:31:26.588Z,68.38
2022-09-13T10:34:32.975Z,67.61
2022-09-13T10:37:35.893Z,67.48
2022-09-13T10:40:39.090Z,66.72
2022-09-13T10:43:41.150Z,66.55
2022-09-13T10:46:42.675Z,65.69
2022-09-13T10:49:49.942Z,64.62
2022-09-13T10:52:56.913Z,63.37
2022-09-13T10:55:58.812Z,62.83
2022-09-13T10:59:18.562Z,62.83
2022-09-13T11:02:46.748Z,63.15
2022-09-13T11:06:31.002Z,60.98
2022-09-13T11:09:47.773Z,61.03
2022-09-13T11:13:36.881Z,59.72
2022-09-13T11:16:53.614Z,59.79
2022-09-13T11:20:00.940Z,58.20
2022-09-13T11:23:24.416Z,58.12
2022-09-13T11:26:38.885Z,58.51
2022-09-13T11:30:00.243Z,58.17
2022-09-13T11:33:30.463Z,57.07
2022-09-13T11:36:59.426Z,57.23
2022-09-13T11:40:28.540Z,57.43
2022-09-13T11:43:56.896Z,56.96
2022-09-13T11:47:16.641Z,57.22
2022-09-13T11:50:40.994Z,57.29
2022-09-13T11:54:06.857Z,57.52
2022-09-13T11:57:15.849Z,57.46
2022-09-13T12:00:29.579Z,58.75
2022-09-13T12:04:03.206Z,58.82
2022-09-13T12:07:12.575Z,59.41
2022-09-13T12:10:54.783Z,60.44
2022-09-13T12:14:03.885Z,60.65
2022-09-13T12:17:19.246Z,60.79
2022-09-13T12:20:49.079Z,61.58
2022-09-13T12:24:05.714Z,62.15
2022-09-13T12:27:21.359Z,62.34
2022-09-13T12:30:33.045Z,62.07
2022-09-13T12:33:39.315Z,61.88
2022-09-13T12:37:14.807Z,62.66
2022-09-13T12:40:30.361Z,63.19
2022-09-13T12:43:53.192Z,64.00
2022-09-13T12:47:39.046Z,64.01
2022-09-13T12:50:45.580Z,63.55
2022-09-13T12:54:25.008Z,63.38
2022-09-13T12:57:43.090Z,63.49
2022-09-13T13:01:34.254Z,63.33
2022-09-13T13:04:36.849Z,63.05
2022-09-13T13:07:40.242Z,62.95
2022-09-13T13:10:41.948Z,62.08
2022-09-13T13:14:01.742Z,62.36
2022-09-13T13:17:34.444Z,62.71
2022-09-13T13:20:54.506Z,62.52
2022-09-13T13:24:15.423Z,62.10
2022-09-13T13:27:34.870Z,62.49
2022-09-13T13:30:49.279Z,62.43
2022-09-13T13:33:57.955Z,62.70
2022-09-13T13:37:01.261Z,62.84
2022-09-13T13:40:25.110Z,62.82
2022-09-13T13:43:33.521Z,63.54
2022-09-13T13:46:35.121Z,64.31
2022-09-13T13:49:38.015Z,64.31
2022-09-13T13:52:58.633Z,63.61
2022-09-13T13:56:34.508Z,63.52
2022-09-13T13:59:36.365Z,63.47
2022-09-13T14:02:48.181Z,63.32
2022-09-13T14:06:09.604Z,63.20
2022-09-13T14:09:38.339Z,63.50
2022-09-13T14:12:52.192Z,64.54
2022-09-13T14:16:18.562Z,65.10
2022-09-13T14:19:23.994Z,64.71
2022-09-13T14:22:28.011Z,64.78
2022-09-13T14:25:29.625Z,64.49
2022-09-13T14:28:32.216Z,64.47
2022-09-13T14:31:35.173Z,64.61
2022-09-13T14:34:38.539Z,64.45
2022-09-13T14:37:40.108Z,64.09
2022-09-13T14:40:48.003Z,63.57
2022-09-13T14:43:49.942Z,63.69
2022-09-13T14:47:00.360Z,63.94
2022-09-13T14:50:07.133Z,64.01
2022-09-13T14:53:20.118Z,63.97
2022-09-13T14:56:39.605Z,64.15
2022-09-13T14:59:48.344Z,64.06
2022-09-13T15:03:02.542Z,64.08
2022-09-13T15:06:04.960Z,63.96
2022-09-13T15:09:09.577Z,64.58
2022-09-13T15:12:28.126Z,64.92
2022-09-13T15:15:44.561Z,65.15
2022-09-13T15:18:46.286Z,64.69
2022-09-13T15:21:47.983Z,64.86
2022-09-13T15:25:27.137Z,65.06
2022-09-13T15:28:33.616Z,65.50
2022-09-13T15:31:35.366Z,65.81
2022-09-13T15:34:46.256Z,65.69
2022-09-13T15:38:07.739Z,65.18
2022-09-13T15:41:17.539Z,65.22
2022-09-13T15:44:20.047Z,65.44
2022-09-13T15:47:22.116Z,65.72
2022-09-13T15:50:26.909Z,65.63
2022-09-13T15:53:28.443Z,65.62
2022-09-13T15:56:37.202Z,65.98
2022-09-13T15:59:38.733Z,66.19
2022-09-13T16:02:40.204Z,66.02
2022-09-13T16:05:41.917Z,66.20
2022-09-13T16:08:43.520Z,66.14
2022-09-13T16:11:46.391Z,66.48
2022-09-13T16:14:49.175Z,66.49
2022-09-13T16:17:50.776Z,66.69
2022-09-13T16:20:52.555Z,66.72
2022-09-13T16:23:54.044Z,66.81
2022-09-13T16:26:55.579Z,66.92
2022-09-13T16:29:57.061Z,67.07
2022-09-13T16:32:59.429Z,67.23
2022-09-13T16:36:02.425Z,67.37
2022-09-13T16:39:04.477Z,67.52
2022-09-13T16:42:08.280Z,67.66
2022-09-13T16:45:11.258Z,67.96
2022-09-13T16:48:12.936Z,68.47
2022-09-13T16:51:14.523Z,68.57
2022-09-13T16:54:16.031Z,68.62
2022-09-13T16:57:17.653Z,68.50
2022-09-13T17:00:19.524Z,68.56
2022-09-13T17:03:21.249Z,68.68
2022-09-13T17:06:25.509Z,68.72
2022-09-13T17:09:27.955Z,68.84
2022-09-13T17:12:30.158Z,68.80
2022-09-13T17:15:32.309Z,68.87
2022-09-13T17:18:34.398Z,68.71
2022-09-13T17:21:36.609Z,68.58
2022-09-13T17:24:39.585Z,68.57
2022-09-13T17:27:41.734Z,68.65
2022-09-13T17:30:46.264Z,68.60
2022-09-13T17:33:49.912Z,68.73
2022-09-13T17:36:52.805Z,68.61
2022-09-13T17:39:55.323Z,68.50
2022-09-13T17:42:57.541Z,68.50
2022-09-13T17:46:09.263Z,68.54
2022-09-13T17:49:11.964Z,68.54
2022-09-13T17:52:14.580Z,68.57
2022-09-13T17:55:17.234Z,68.62
2022-09-13T17:58:19.618Z,68.75
2022-09-13T18:01:22.707Z,68.73
2022-09-13T18:04:25.397Z,68.75
2022-09-13T18:07:27.630Z,68.50
2022-09-13T18:10:53.458Z,68.40
2022-09-13T18:13:53.951Z,68.39
2022-09-13T18:16:58.286Z,68.51
2022-09-13T18:20:00.477Z,68.71
2022-09-13T18:23:02.594Z,68.81
2022-09-13T18:26:11.299Z,68.72
2022-09-13T18:29:14.432Z,68.81
2022-09-13T18:32:18.614Z,68.94
2022-09-13T18:35:21.294Z,68.84
2022-09-13T18:38:24.271Z,68.94
2022-09-13T18:41:43.325Z,69.04
2022-09-13T18:44:45.679Z,69.08
2022-09-13T18:47:48.561Z,69.13
2022-09-13T18:50:53.856Z,69.16
2022-09-13T18:54:04.105Z,69.19
2022-09-13T18:57:09.210Z,69.28
2022-09-13T19:00:15.049Z,69.26
2022-09-13T19:03:19.201Z,69.33
2022-09-13T19:06:25.754Z,69.13
2022-09-13T19:09:35.971Z,69.11
2022-09-13T19:12:43.889Z,69.23
2022-09-13T19:15:46.717Z,69.30
2022-09-13T19:18:52.785Z,69.30
2022-09-13T19:25:16.124Z,69.31
2022-09-13T19:28:19.724Z,69.22
2022-09-13T19:31:26.525Z,69.32
2022-09-13T19:34:30.060Z,69.37
2022-09-13T19:37:38.921Z,69.22
2022-09-13T19:40:42.696Z,69.14
2022-09-13T19:43:48.590Z,69.30
2022-09-13T19:47:14.922Z,69.41
2022-09-13T19:50:14.427Z,69.32
2022-09-13T19:53:17.418Z,69.42
2022-09-13T19:56:22.331Z,69.37
2022-09-13T19:59:26.448Z,69.34
2022-09-13T20:02:28.200Z,69.24
2022-09-13T20:05:32.677Z,69.25
2022-09-13T20:08:34.940Z,69.31
2022-09-13T20:11:42.164Z,69.42
2022-09-13T20:14:44.206Z,69.46
2022-09-13T20:17:48.891Z,69.59
2022-09-13T20:20:55.870Z,69.60
2022-09-13T20:24:03.057Z,69.65
2022-09-13T20:27:05.172Z,69.65
2022-09-13T20:30:07.436Z,69.67
2022-09-13T20:33:10.649Z,69.73
2022-09-13T20:36:14.538Z,69.67
2022-09-13T20:39:16.202Z,69.81
2022-09-13T20:42:17.650Z,69.86
2022-09-13T20:45:19.494Z,69.84
2022-09-13T20:48:21.053Z,69.89
2022-09-13T20:51:24.615Z,69.95
2022-09-13T20:54:26.536Z,69.85
2022-09-13T20:57:28.501Z,69.86
2022-09-13T21:00:30.014Z,69.92
2022-09-13T21:03:36.364Z,69.96
2022-09-13T21:07:00.873Z,69.97
2022-09-13T21:10:04.128Z,69.94
2022-09-13T21:13:08.798Z,69.92
2022-09-13T21:16:15.963Z,69.94
2022-09-13T21:19:17.911Z,69.90
2022-09-13T21:22:20.425Z,69.88
2022-09-13T21:25:21.972Z,69.87
2022-09-13T21:28:23.610Z,69.92
2022-09-13T21:31:28.247Z,69.89
2022-09-13T21:34:29.823Z,69.90
2022-09-13T21:37:31.309Z,69.94
2022-09-13T21:40:32.774Z,69.97
2022-09-13T21:43:34.691Z,69.97
2022-09-13T21:46:37.718Z,69.99
2022-09-13T21:49:39.189Z,70.02
2022-09-13T21:52:41.341Z,69.91
2022-09-13T21:55:42.777Z,69.96
2022-09-13T21:58:54.399Z,69.92
2022-09-13T22:01:55.949Z,70.00
2022-09-13T22:04:57.570Z,69.94
2022-09-13T22:07:59.114Z,69.85
2022-09-13T22:11:09.714Z,69.75
2022-09-13T22:14:13.389Z,69.82
2022-09-13T22:17:14.895Z,69.91
2022-09-13T22:20:16.585Z,69.93
2022-09-13T22:23:18.132Z,70.02
2022-09-13T22:26:22.629Z,70.11
2022-09-13T22:29:24.692Z,70.19
2022-09-13T22:32:30.399Z,70.22
2022-09-13T22:35:32.102Z,70.22
2022-09-13T22:38:34.859Z,70.22
2022-09-13T22:41:36.453Z,70.27
2022-09-13T22:44:37.969Z,70.27
2022-09-13T22:47:39.417Z,70.43
2022-09-13T22:50:40.999Z,70.49
2022-09-13T22:53:44.108Z,70.56
2022-09-13T22:56:46.212Z,70.62
2022-09-13T22:59:47.849Z,70.71
2022-09-13T23:02:49.249Z,70.79
2022-09-13T23:05:51.856Z,70.72
2022-09-13T23:08:55.371Z,70.74
2022-09-13T23:11:56.894Z,70.82
2022-09-13T23:14:58.316Z,70.77
2022-09-13T23:17:59.992Z,70.77
2022-09-13T23:21:01.615Z,70.84
2022-09-13T23:24:05.526Z,70.75
2022-09-13T23:27:07.234Z,70.76
2022-09-13T23:30:09.066Z,70.85
2022-09-13T23:33:13.751Z,70.85
2022-09-13T23:36:18.228Z,70.97
2022-09-13T23:39:19.802Z,70.95
2022-09-13T23:42:21.360Z,71.16
2022-09-13T23:45:22.843Z,71.15
2022-09-13T23:48:24.822Z,71.15
2022-09-13T23:51:26.872Z,71.17
2022-09-13T23:54:28.392Z,71.27
2022-09-13T23:57:29.911Z,71.34
